Terminal Aerodrome Forecast
Issued by NWS North Platte, NE

Home | Current Version | Previous Version | Graphics & Text | Print | Product List | Glossary On
Versions: 1 2 3 4 5 6 7 8 9 10 11 12 13 14 15 16 17 18 19 20
144
FTUS43 KLBF 200336 RRA
TAFVTN
TAF
KVTN 200336Z 2004/2024 14008KT P6SM SCT200
     FM200500 VRB05KT P6SM SKC
     FM201500 04011KT P6SM SCT250=

USA.gov is the U.S. government's official web portal to all federal, state and local government web resources and services.